createdAt,value
2023-04-18T00:01:16.839Z,14.20
2023-04-18T00:03:45.714Z,14.48
2023-04-18T00:06:13.688Z,13.32
2023-04-18T00:08:41.158Z,14.32
2023-04-18T00:11:08.546Z,12.65
2023-04-18T00:13:38.362Z,13.32
2023-04-18T00:16:05.998Z,12.55
2023-04-18T00:18:33.279Z,12.27
2023-04-18T00:21:00.612Z,12.93
2023-04-18T00:23:28.284Z,13.15
2023-04-18T00:25:55.593Z,13.48
2023-04-18T00:28:22.956Z,12.88
2023-04-18T00:30:51.684Z,13.63
2023-04-18T00:33:19.139Z,12.98
2023-04-18T00:35:46.488Z,12.48
2023-04-18T00:38:13.774Z,13.00
2023-04-18T00:40:41.159Z,11.93
2023-04-18T00:43:08.589Z,12.52
2023-04-18T00:45:36.906Z,12.57
2023-04-18T00:48:05.733Z,11.57
2023-04-18T00:50:33.120Z,12.85
2023-04-18T00:53:00.409Z,12.75
2023-04-18T00:55:27.751Z,12.45
2023-04-18T00:57:55.583Z,12.32
2023-04-18T01:00:22.889Z,12.15
2023-04-18T01:02:53.044Z,12.75
2023-04-18T01:05:22.319Z,13.77
2023-04-18T01:07:50.005Z,11.93
2023-04-18T01:10:17.345Z,12.55
2023-04-18T01:12:44.636Z,12.15
2023-04-18T01:15:12.520Z,13.05
2023-04-18T01:17:39.951Z,12.88
2023-04-18T01:20:08.224Z,13.13
2023-04-18T01:22:36.950Z,14.18
2023-04-18T01:25:09.153Z,13.27
2023-04-18T01:27:36.469Z,14.98
2023-04-18T01:30:04.140Z,14.43
2023-04-18T01:32:31.554Z,13.57
2023-04-18T01:34:58.876Z,14.27
2023-04-18T01:37:28.337Z,14.65
2023-04-18T01:39:55.709Z,13.95
2023-04-18T01:42:24.352Z,14.20
2023-04-18T01:44:51.671Z,14.52
2023-04-18T01:47:19.005Z,13.63
2023-04-18T01:49:48.233Z,13.95
2023-04-18T01:52:15.987Z,13.40
2023-04-18T01:54:43.389Z,14.35
2023-04-18T01:57:10.718Z,14.27
2023-04-18T01:59:39.421Z,14.50
2023-04-18T02:02:06.877Z,14.50
2023-04-18T02:04:34.236Z,14.90
2023-04-18T02:07:01.535Z,14.57
2023-04-18T02:09:28.849Z,14.73
2023-04-18T02:11:59.214Z,14.25
2023-04-18T02:14:27.547Z,14.20
2023-04-18T02:16:56.299Z,13.90
2023-04-18T02:19:24.199Z,13.82
2023-04-18T02:21:51.558Z,13.43
2023-04-18T02:24:18.998Z,14.13
2023-04-18T02:26:46.507Z,14.68
2023-04-18T02:29:13.818Z,13.40
2023-04-18T02:31:41.795Z,13.68
2023-04-18T02:34:10.719Z,13.98
2023-04-18T02:36:38.180Z,15.10
2023-04-18T02:39:05.536Z,13.80
2023-04-18T02:41:34.608Z,13.18
2023-04-18T02:44:01.923Z,14.80
2023-04-18T02:46:29.288Z,13.90
2023-04-18T02:48:56.685Z,14.07
2023-04-18T02:51:26.292Z,12.95
2023-04-18T02:53:55.060Z,13.95
2023-04-18T02:56:22.694Z,14.40
2023-04-18T02:58:50.053Z,13.10
2023-04-18T03:01:18.391Z,14.45
2023-04-18T03:03:45.731Z,15.38
2023-04-18T03:06:13.128Z,16.23
2023-04-18T03:08:41.991Z,15.48
2023-04-18T03:11:09.314Z,15.45
2023-04-18T03:13:36.641Z,15.88
2023-04-18T03:16:04.133Z,15.82
2023-04-18T03:18:31.462Z,16.30
2023-04-18T03:20:58.748Z,15.68
2023-04-18T03:23:26.065Z,15.45
2023-04-18T03:25:54.681Z,15.27
2023-04-18T03:28:21.972Z,16.02
2023-04-18T03:30:50.477Z,16.95
2023-04-18T03:33:18.014Z,17.08
2023-04-18T03:35:45.316Z,16.60
2023-04-18T03:38:12.627Z,17.80
2023-04-18T03:40:39.924Z,16.35
2023-04-18T03:43:08.554Z,17.13
2023-04-18T03:45:35.950Z,16.98
2023-04-18T03:48:03.521Z,18.63
2023-04-18T03:50:30.886Z,17.63
2023-04-18T03:52:58.207Z,16.52
2023-04-18T03:55:26.115Z,16.85
2023-04-18T03:57:53.455Z,17.33
2023-04-18T04:00:22.105Z,17.30
2023-04-18T04:02:49.440Z,18.67
2023-04-18T04:05:16.932Z,19.83
2023-04-18T04:07:44.468Z,18.40
2023-04-18T04:10:11.986Z,19.90
2023-04-18T04:12:39.330Z,18.88
2023-04-18T04:15:07.217Z,20.55
2023-04-18T04:17:35.878Z,18.88
2023-04-18T04:20:03.243Z,20.02
2023-04-18T04:22:31.039Z,19.58
2023-04-18T04:24:58.511Z,19.10
2023-04-18T04:27:26.796Z,19.02
2023-04-18T04:29:54.257Z,19.92
2023-04-18T04:32:21.627Z,18.45
2023-04-18T04:34:50.449Z,18.45
2023-04-18T04:37:18.549Z,17.55
2023-04-18T04:39:46.017Z,18.83
2023-04-18T04:42:13.527Z,19.58
2023-04-18T04:44:41.406Z,18.58
2023-04-18T04:47:08.822Z,19.20
2023-04-18T04:49:36.122Z,18.83
2023-04-18T04:52:04.830Z,20.45
2023-04-18T04:54:32.119Z,21.95
2023-04-18T04:56:59.447Z,22.30
2023-04-18T04:59:26.726Z,21.95
2023-04-18T05:01:54.212Z,21.50
2023-04-18T05:04:21.588Z,20.60
2023-04-18T05:06:49.067Z,20.20
2023-04-18T05:09:17.701Z,20.85
2023-04-18T05:11:45.052Z,19.65
2023-04-18T05:14:13.022Z,21.40
2023-04-18T05:16:40.760Z,19.55
2023-04-18T05:19:08.122Z,19.85
2023-04-18T05:21:35.508Z,20.25
2023-04-18T05:24:02.821Z,21.35
2023-04-18T05:26:31.449Z,19.42
2023-04-18T05:28:58.787Z,19.77
2023-04-18T05:31:26.707Z,18.50
2023-04-18T05:33:54.047Z,19.23
2023-04-18T05:36:21.507Z,19.60
2023-04-18T05:38:48.835Z,19.80
2023-04-18T05:41:16.192Z,19.85
2023-04-18T05:43:51.115Z,19.00
2023-04-18T05:46:29.484Z,19.88
2023-04-18T05:48:56.817Z,18.83
2023-04-18T05:51:24.098Z,18.75
2023-04-18T05:53:51.385Z,18.35
2023-04-18T05:56:18.684Z,16.42
2023-04-18T05:58:47.708Z,15.77
2023-04-18T06:01:15.295Z,15.40
2023-04-18T06:03:42.851Z,14.77
2023-04-18T06:06:10.691Z,14.45
2023-04-18T06:08:38.927Z,15.88
2023-04-18T06:11:06.401Z,13.90
2023-04-18T06:13:33.764Z,14.27
2023-04-18T06:16:02.484Z,14.63
2023-04-18T06:18:29.809Z,13.80
2023-04-18T06:20:57.158Z,13.45
2023-04-18T06:23:24.555Z,13.73
2023-04-18T06:25:51.855Z,14.35
2023-04-18T06:28:19.150Z,14.20
2023-04-18T06:30:46.436Z,14.27
2023-04-18T06:33:15.332Z,14.38
2023-04-18T06:35:42.932Z,14.15
2023-04-18T06:38:11.491Z,13.93
2023-04-18T06:40:38.836Z,13.52
2023-04-18T06:43:06.112Z,13.82
2023-04-18T06:45:33.531Z,13.90
2023-04-18T06:48:03.375Z,13.15
2023-04-18T06:50:32.237Z,13.20
2023-04-18T06:52:59.538Z,13.52
2023-04-18T06:55:26.819Z,13.23
2023-04-18T06:57:54.151Z,13.23
2023-04-18T07:00:21.699Z,13.02
2023-04-18T07:02:49.463Z,13.73
2023-04-18T07:05:16.948Z,12.68
2023-04-18T07:07:45.640Z,13.07
2023-04-18T07:10:13.380Z,11.82
2023-04-18T07:12:40.755Z,12.63
2023-04-18T07:15:08.654Z,11.93
2023-04-18T07:17:35.973Z,11.75
2023-04-18T07:20:03.343Z,10.38
2023-04-18T07:22:30.938Z,11.05
2023-04-18T07:24:59.560Z,9.70
2023-04-18T07:27:26.891Z,10.05
2023-04-18T07:29:54.150Z,9.05
2023-04-18T07:32:21.489Z,9.20
2023-04-18T07:34:48.979Z,9.50
2023-04-18T07:37:17.425Z,10.00
2023-04-18T07:39:45.082Z,9.52
2023-04-18T07:42:13.838Z,9.30
2023-04-18T07:44:41.224Z,8.95
2023-04-18T07:47:10.819Z,9.13
2023-04-18T07:49:38.352Z,9.63
2023-04-18T07:52:05.796Z,8.15
2023-04-18T07:54:33.104Z,8.40
2023-04-18T07:57:00.745Z,7.97
2023-04-18T07:59:29.772Z,8.30
2023-04-18T08:01:57.080Z,8.35
2023-04-18T08:04:26.888Z,7.70
2023-04-18T08:06:59.096Z,7.68
2023-04-18T08:09:26.428Z,7.55
2023-04-18T08:11:55.111Z,6.50
2023-04-18T08:14:22.450Z,7.22
2023-04-18T08:16:51.098Z,7.18
2023-04-18T08:19:18.420Z,7.80
2023-04-18T08:21:45.698Z,7.85
2023-04-18T08:24:12.989Z,7.45
2023-04-18T08:26:40.261Z,7.82
2023-04-18T08:29:07.926Z,7.18
2023-04-18T08:31:35.254Z,8.05
2023-04-18T08:34:05.105Z,7.47
2023-04-18T08:36:32.584Z,7.82
2023-04-18T08:38:59.870Z,7.93
2023-04-18T08:41:27.468Z,7.85
2023-04-18T08:43:56.990Z,8.13
2023-04-18T08:46:24.577Z,7.82
2023-04-18T08:48:52.515Z,7.82
2023-04-18T08:51:21.441Z,8.25
2023-04-18T08:53:48.875Z,8.23
2023-04-18T08:56:16.227Z,7.40
2023-04-18T08:58:45.000Z,8.13
2023-04-18T09:01:13.376Z,8.68
2023-04-18T09:03:41.233Z,8.43
2023-04-18T09:06:13.552Z,8.15
2023-04-18T09:08:43.405Z,8.18
2023-04-18T09:11:24.206Z,7.70
2023-04-18T09:13:51.763Z,7.55
2023-04-18T09:16:20.611Z,8.40
2023-04-18T09:19:04.709Z,8.13
2023-04-18T09:21:35.921Z,7.15
2023-04-18T09:24:17.370Z,7.45
2023-04-18T09:26:44.709Z,7.97
2023-04-18T09:29:12.357Z,7.63
2023-04-18T09:31:53.077Z,8.02
2023-04-18T09:34:24.697Z,7.45
2023-04-18T09:37:06.415Z,7.88
2023-04-18T09:39:35.276Z,7.43
2023-04-18T09:42:02.722Z,7.88
2023-04-18T09:44:30.179Z,8.25
2023-04-18T09:46:57.485Z,7.80
2023-04-18T09:49:25.468Z,7.25
2023-04-18T09:51:54.348Z,7.60
2023-04-18T09:54:23.413Z,7.80
2023-04-18T09:56:54.117Z,7.72
2023-04-18T09:59:28.149Z,7.22
2023-04-18T10:01:56.420Z,7.47
2023-04-18T10:04:24.139Z,7.45
2023-04-18T10:06:51.489Z,6.72
2023-04-18T10:09:19.008Z,6.82
2023-04-18T10:11:46.409Z,7.43
2023-04-18T10:14:16.671Z,7.03
2023-04-18T10:16:45.289Z,7.25
2023-04-18T10:19:22.807Z,7.35
2023-04-18T10:21:53.627Z,7.00
2023-04-18T10:24:39.394Z,6.90
2023-04-18T10:27:06.712Z,6.35
2023-04-18T10:29:48.922Z,6.82
2023-04-18T10:32:16.533Z,6.60
2023-04-18T10:34:43.857Z,5.85
2023-04-18T10:37:12.738Z,6.53
2023-04-18T10:39:50.597Z,6.57
2023-04-18T10:42:18.059Z,6.00
2023-04-18T10:45:05.617Z,6.63
2023-04-18T10:47:34.388Z,6.40
2023-04-18T10:50:06.232Z,5.97
2023-04-18T10:52:34.092Z,6.57
2023-04-18T10:55:09.747Z,6.03
2023-04-18T10:57:43.689Z,5.78
2023-04-18T11:00:12.514Z,6.38
2023-04-18T11:02:41.468Z,6.00
2023-04-18T11:05:09.505Z,6.38
2023-04-18T11:07:37.278Z,5.97
2023-04-18T11:10:04.954Z,6.00
2023-04-18T11:12:33.258Z,6.10
2023-04-18T11:15:02.983Z,5.82
2023-04-18T11:17:32.717Z,5.63
2023-04-18T11:20:01.968Z,5.90
2023-04-18T11:22:31.001Z,5.50
2023-04-18T11:24:58.827Z,6.85
2023-04-18T11:27:26.684Z,7.10
2023-04-18T11:29:54.891Z,6.35
2023-04-18T11:32:23.621Z,6.40
2023-04-18T11:34:54.803Z,6.68
2023-04-18T11:37:23.532Z,6.88
2023-04-18T11:39:52.962Z,7.07
2023-04-18T11:42:20.280Z,6.97
2023-04-18T11:44:49.068Z,7.03
2023-04-18T11:47:23.219Z,7.28
2023-04-18T11:49:57.176Z,6.93
2023-04-18T11:52:26.797Z,7.18
2023-04-18T11:54:54.050Z,6.50
2023-04-18T11:57:22.672Z,7.28
2023-04-18T11:59:51.133Z,7.22
2023-04-18T12:02:18.575Z,7.32
2023-04-18T12:04:53.024Z,7.15
2023-04-18T12:09:52.910Z,7.13
2023-04-18T12:12:20.234Z,6.78
2023-04-18T12:14:47.576Z,5.97
2023-04-18T12:17:14.984Z,6.25
2023-04-18T12:19:45.979Z,6.45
2023-04-18T12:22:16.617Z,6.68
2023-04-18T12:24:43.970Z,6.78
2023-04-18T12:27:12.981Z,6.95
2023-04-18T12:29:40.635Z,6.97
2023-04-18T12:32:07.912Z,7.00
2023-04-18T12:34:35.224Z,7.25
2023-04-18T12:37:03.740Z,7.72
2023-04-18T12:39:31.023Z,6.80
2023-04-18T12:41:58.435Z,6.57
2023-04-18T12:44:27.064Z,6.55
2023-04-18T12:46:54.408Z,6.88
2023-04-18T12:49:21.719Z,6.88
2023-04-18T12:51:49.019Z,6.88
2023-04-18T12:54:16.461Z,6.13
2023-04-18T12:56:45.883Z,7.55
2023-04-18T12:59:13.535Z,8.05
2023-04-18T13:01:42.364Z,8.85
2023-04-18T13:04:12.825Z,7.93
2023-04-18T13:06:40.453Z,6.18
2023-04-18T13:09:09.009Z,6.13
2023-04-18T13:11:36.297Z,6.25
2023-04-18T13:14:03.695Z,5.93
2023-04-18T13:16:31.080Z,6.63
2023-04-18T13:18:59.840Z,5.85
2023-04-18T13:21:27.411Z,5.80
2023-04-18T13:23:54.709Z,5.57
2023-04-18T13:26:21.949Z,6.13
2023-04-18T13:28:50.035Z,5.95
2023-04-18T13:31:17.339Z,5.78
2023-04-18T13:33:44.600Z,5.75
2023-04-18T13:36:13.217Z,5.75
2023-04-18T13:38:41.003Z,5.72
2023-04-18T13:41:12.771Z,5.85
2023-04-18T13:43:40.918Z,5.93
2023-04-18T13:46:08.231Z,5.93
2023-04-18T13:48:35.566Z,5.57
2023-04-18T13:51:03.177Z,6.30
2023-04-18T13:53:31.812Z,5.72
2023-04-18T13:56:01.035Z,6.35
2023-04-18T13:58:28.407Z,5.75
2023-04-18T14:00:55.972Z,6.50
2023-04-18T14:03:23.290Z,6.22
2023-04-18T14:05:50.829Z,6.22
2023-04-18T14:08:18.260Z,8.55
2023-04-18T14:10:46.870Z,10.20
2023-04-18T14:13:14.172Z,10.18
2023-04-18T14:15:41.527Z,9.93
2023-04-18T14:18:08.988Z,10.15
2023-04-18T14:20:37.046Z,10.15
2023-04-18T14:23:04.349Z,10.23
2023-04-18T14:25:31.790Z,10.10
2023-04-18T14:28:07.790Z,10.50
2023-04-18T14:30:35.116Z,10.35
2023-04-18T14:33:02.554Z,10.55
2023-04-18T14:35:29.980Z,9.90
2023-04-18T14:37:57.264Z,10.38
2023-04-18T14:40:24.949Z,9.70
2023-04-18T14:42:52.257Z,9.85
2023-04-18T14:45:20.965Z,8.52
2023-04-18T14:47:48.326Z,7.50
2023-04-18T14:50:16.201Z,7.25
2023-04-18T14:52:43.598Z,7.50
2023-04-18T14:55:11.128Z,6.57
2023-04-18T14:57:39.080Z,7.25
2023-04-18T15:00:09.746Z,7.07
2023-04-18T15:02:38.574Z,7.40
2023-04-18T15:05:07.308Z,7.20
2023-04-18T15:07:36.749Z,6.70
2023-04-18T15:10:04.526Z,7.15
2023-04-18T15:12:31.945Z,6.82
2023-04-18T15:15:00.053Z,7.43
2023-04-18T15:17:27.559Z,8.02
2023-04-18T15:19:56.258Z,6.97
2023-04-18T15:22:23.603Z,7.07
2023-04-18T15:24:51.189Z,7.03
2023-04-18T15:27:18.490Z,7.50
2023-04-18T15:29:46.844Z,7.35
2023-04-18T15:32:14.442Z,7.22
2023-04-18T15:34:41.925Z,6.80
2023-04-18T15:37:10.575Z,7.65
2023-04-18T15:39:38.700Z,7.55
2023-04-18T15:42:06.839Z,6.90
2023-04-18T15:44:34.127Z,7.43
2023-04-18T15:47:01.807Z,6.20
2023-04-18T15:49:29.253Z,7.25
2023-04-18T15:51:56.742Z,7.70
2023-04-18T15:54:25.455Z,7.22
2023-04-18T15:56:52.730Z,6.78
2023-04-18T15:59:20.343Z,7.30
2023-04-18T16:01:54.987Z,7.30
2023-04-18T16:04:23.663Z,7.85
2023-04-18T16:06:50.975Z,7.28
2023-04-18T16:09:18.465Z,7.22
2023-04-18T16:11:47.144Z,7.35
2023-04-18T16:14:14.710Z,7.78
2023-04-18T16:16:42.387Z,7.35
2023-04-18T16:19:09.702Z,7.18
2023-04-18T16:21:37.034Z,6.90
2023-04-18T16:24:04.372Z,6.53
2023-04-18T16:26:31.689Z,6.93
2023-04-18T16:29:00.524Z,7.68
2023-04-18T16:31:27.945Z,7.65
2023-04-18T16:33:55.956Z,6.93
2023-04-18T16:36:23.352Z,7.95
2023-04-18T16:38:51.085Z,6.32
2023-04-18T16:41:18.386Z,7.68
2023-04-18T16:43:45.735Z,6.70
2023-04-18T16:46:14.638Z,6.50
2023-04-18T16:48:41.935Z,6.63
2023-04-18T16:51:09.273Z,6.43
2023-04-18T16:53:36.774Z,6.78
2023-04-18T16:56:04.203Z,6.22
2023-04-18T16:58:31.500Z,6.78
2023-04-18T17:00:58.846Z,6.20
2023-04-18T17:03:27.613Z,6.75
2023-04-18T17:05:55.631Z,7.00
2023-04-18T17:08:24.004Z,7.38
2023-04-18T17:10:52.170Z,6.93
2023-04-18T17:13:19.519Z,6.65
2023-04-18T17:15:46.949Z,6.45
2023-04-18T17:18:14.317Z,6.63
2023-04-18T17:20:42.952Z,6.45
2023-04-18T17:23:10.257Z,6.40
2023-04-18T17:25:37.641Z,7.15
2023-04-18T17:28:05.126Z,6.65
2023-04-18T17:30:32.435Z,6.40
2023-04-18T17:32:59.766Z,6.15
2023-04-18T17:35:27.160Z,6.50
2023-04-18T17:37:55.842Z,6.07
2023-04-18T17:40:23.226Z,6.10
2023-04-18T17:42:50.541Z,5.78
2023-04-18T17:45:20.270Z,6.45
2023-04-18T17:47:49.368Z,6.15
2023-04-18T17:50:16.684Z,6.43
2023-04-18T17:52:45.055Z,6.40
2023-04-18T17:55:13.778Z,6.35
2023-04-18T17:57:41.476Z,7.30
2023-04-18T18:00:11.618Z,6.93
2023-04-18T18:02:40.268Z,6.63
2023-04-18T18:05:08.818Z,6.82
2023-04-18T18:07:38.145Z,6.97
2023-04-18T18:10:06.449Z,7.18
2023-04-18T18:12:36.056Z,6.85
2023-04-18T18:15:03.383Z,7.88
2023-04-18T18:17:30.810Z,7.50
2023-04-18T18:19:58.201Z,7.32
2023-04-18T18:22:26.060Z,7.00
2023-04-18T18:24:53.471Z,7.00
2023-04-18T18:27:20.896Z,7.00
2023-04-18T18:29:50.264Z,7.13
2023-04-18T18:32:17.823Z,6.95
2023-04-18T18:34:45.540Z,6.55
2023-04-18T18:37:12.853Z,7.00
2023-04-18T18:39:40.344Z,7.15
2023-04-18T18:42:07.673Z,6.90
2023-04-18T18:44:35.002Z,7.15
2023-04-18T18:47:03.767Z,6.80
2023-04-18T18:49:31.081Z,6.93
2023-04-18T18:51:58.434Z,7.05
2023-04-18T18:54:25.825Z,7.45
2023-04-18T18:56:53.113Z,7.10
2023-04-18T18:59:20.418Z,7.82
2023-04-18T19:01:47.753Z,8.25
2023-04-18T19:04:16.810Z,6.93
2023-04-18T19:06:44.322Z,7.30
2023-04-18T19:09:11.843Z,7.35
2023-04-18T19:11:39.177Z,8.13
2023-04-18T19:14:06.510Z,8.20
2023-04-18T19:16:35.870Z,7.70
2023-04-18T19:19:03.281Z,8.57
2023-04-18T19:21:32.215Z,7.65
2023-04-18T19:23:59.496Z,8.07
2023-04-18T19:26:26.809Z,7.88
2023-04-18T19:28:54.415Z,8.50
2023-04-18T19:31:21.713Z,8.48
2023-04-18T19:33:51.898Z,9.32
2023-04-18T19:36:19.223Z,8.75
2023-04-18T19:38:47.858Z,8.73
2023-04-18T19:41:15.163Z,8.32
2023-04-18T19:43:42.473Z,8.13
2023-04-18T19:46:09.808Z,8.02
2023-04-18T19:48:37.372Z,8.52
2023-04-18T19:51:04.866Z,7.60
2023-04-18T19:53:32.189Z,7.40
2023-04-18T19:56:00.820Z,8.00
2023-04-18T19:58:34.421Z,8.52
2023-04-18T20:01:01.884Z,8.30
2023-04-18T20:03:29.484Z,8.52
2023-04-18T20:05:56.905Z,8.95
2023-04-18T20:08:24.250Z,9.30
2023-04-18T20:10:51.543Z,8.68
2023-04-18T20:13:20.236Z,9.00
2023-04-18T20:15:47.546Z,9.20
2023-04-18T20:18:14.868Z,8.00
2023-04-18T20:20:42.232Z,7.60
2023-04-18T20:23:09.551Z,7.50
2023-04-18T20:25:36.837Z,6.53
2023-04-18T20:28:04.453Z,6.65
2023-04-18T20:30:34.658Z,6.35
2023-04-18T20:33:02.040Z,5.78
2023-04-18T20:35:29.685Z,6.20
2023-04-18T20:37:57.685Z,6.03
2023-04-18T20:40:25.501Z,6.38
2023-04-18T20:42:55.188Z,6.10
2023-04-18T20:45:23.923Z,6.30
2023-04-18T20:47:52.641Z,6.80
2023-04-18T20:50:20.445Z,6.07
2023-04-18T20:52:47.848Z,6.32
2023-04-18T20:55:16.671Z,6.57
2023-04-18T20:57:44.025Z,6.85
2023-04-18T21:00:14.307Z,7.82
2023-04-18T21:02:41.742Z,8.35
2023-04-18T21:05:10.693Z,9.65
2023-04-18T21:07:38.074Z,8.63
2023-04-18T21:10:05.703Z,8.73
2023-04-18T21:12:33.108Z,8.60
2023-04-18T21:15:00.408Z,9.48
2023-04-18T21:17:27.718Z,11.35
2023-04-18T21:19:56.182Z,10.95
2023-04-18T21:22:24.807Z,14.45
2023-04-18T21:24:52.102Z,12.80
2023-04-18T21:27:19.407Z,12.25
2023-04-18T21:29:46.765Z,11.57
2023-04-18T21:32:14.057Z,10.18
2023-04-18T21:34:41.408Z,9.65
2023-04-18T21:37:08.721Z,9.57
2023-04-18T21:39:38.094Z,9.15
2023-04-18T21:42:05.414Z,9.77
2023-04-18T21:44:32.836Z,9.98
2023-04-18T21:47:00.147Z,9.05
2023-04-18T21:49:27.468Z,8.73
2023-04-18T21:51:54.906Z,8.55
2023-04-18T21:54:22.187Z,8.57
2023-04-18T21:56:50.820Z,9.27
2023-04-18T21:59:18.079Z,8.75
2023-04-18T22:01:45.374Z,8.50
2023-04-18T22:04:14.541Z,8.30
2023-04-18T22:06:42.512Z,9.25
2023-04-18T22:09:09.801Z,9.48
2023-04-18T22:11:37.112Z,8.23
2023-04-18T22:14:05.965Z,8.20
2023-04-18T22:16:33.313Z,8.13
2023-04-18T22:19:01.144Z,9.57
2023-04-18T22:21:28.467Z,9.18
2023-04-18T22:23:55.790Z,8.93
2023-04-18T22:26:23.394Z,9.70
2023-04-18T22:28:50.691Z,9.05
2023-04-18T22:31:19.352Z,8.70
2023-04-18T22:33:47.475Z,8.55
2023-04-18T22:36:14.749Z,8.73
2023-04-18T22:38:42.025Z,8.20
2023-04-18T22:41:09.312Z,9.02
2023-04-18T22:43:36.657Z,8.15
2023-04-18T22:46:04.264Z,8.68
2023-04-18T22:48:34.932Z,8.93
2023-04-18T22:51:02.626Z,7.50
2023-04-18T22:53:29.910Z,7.35
2023-04-18T22:55:57.220Z,6.95
2023-04-18T22:58:24.565Z,7.82
2023-04-18T23:00:51.847Z,7.28
2023-04-18T23:03:19.235Z,6.90
2023-04-18T23:05:47.936Z,8.52
2023-04-18T23:08:15.307Z,7.47
2023-04-18T23:10:42.654Z,8.20
2023-04-18T23:13:09.966Z,7.95
2023-04-18T23:15:37.292Z,8.05
2023-04-18T23:18:04.754Z,8.07
2023-04-18T23:20:32.083Z,8.10
2023-04-18T23:23:00.753Z,8.35
2023-04-18T23:25:29.020Z,8.57
2023-04-18T23:27:56.359Z,8.02
2023-04-18T23:30:23.798Z,8.60
2023-04-18T23:32:51.137Z,8.07
2023-04-18T23:35:18.611Z,8.38
2023-04-18T23:37:45.987Z,7.95
2023-04-18T23:40:14.626Z,8.07
2023-04-18T23:42:42.084Z,7.70
2023-04-18T23:45:09.559Z,8.27
2023-04-18T23:47:36.894Z,8.05
2023-04-18T23:50:04.528Z,8.70
2023-04-18T23:52:31.877Z,8.38
2023-04-18T23:55:00.149Z,7.30
2023-04-18T23:57:28.853Z,7.85
2023-04-18T23:59:56.164Z,8.02
